Nestor — V2FB3 — position and weather

sailwx.info

Track history (hours):
 
Tides and Currents Weather Stations Pressure Air Temp Water Temp Dewpoint Dewpoint Depression Visibility Wind Speed Wind Dir Waves Ship Positions

Nestor

Last reported at 2016-Jun-27 19:29 UTC. Time now 2016-Jun-28 09:51 UTC.
Position N 39°20' W 009°50'.

Length 88 m; draft 5.5 m.

Type: Cargo ship. MMSI: 305620000.

Date/timePositionNaut miles runAvg speedWind from/ knotsBaromVisibWave heightAir tempDewpointWater temp
2016-Jun-27 19:29N 39°20' W 009°50'5 5.6
2016-Jun-27 18:33N 39°15' W 009°51'6 5.8
2016-Jun-27 17:32N 39°09' W 009°50'6 5.4
2016-Jun-27 16:30N 39°03' W 009°50'5 5.5
2016-Jun-27 15:33N 38°58' W 009°51'5 5.3
2016-Jun-27 14:32N 38°53' W 009°51'5 5.3
2016-Jun-27 13:33N 38°48' W 009°51'6 5.6
2016-Jun-27 12:34N 38°42' W 009°50'6 5.9
2016-Jun-27 11:33N 38°36' W 009°49'6 5.9
2016-Jun-27 10:34N 38°31' W 009°47'6 5.8
2016-Jun-27 09:34N 38°25' W 009°46'6 6.0
2016-Jun-27 08:33N 38°19' W 009°44'7 6.4
2016-Jun-27 07:31N 38°13' W 009°42'13 6.5
2016-Jun-27 05:33N 38°00' W 009°38'7 6.5
2016-Jun-27 04:33N 37°54' W 009°36'6 6.4
2016-Jun-27 03:33N 37°48' W 009°34'6 6.4
2016-Jun-27 02:33N 37°41' W 009°32'6 6.2
2016-Jun-27 01:33N 37°35' W 009°31'6 5.7
2016-Jun-27 00:30N 37°29' W 009°29'12 6.0
2016-Jun-26 22:28N 37°18' W 009°25'6 6.2
2016-Jun-26 21:32N 37°12' W 009°24'6 6.2
2016-Jun-26 20:33N 37°06' W 009°22'8 6.2
2016-Jun-26 19:20N 36°59' W 009°20'6 6.4
2016-Jun-26 18:25N 36°53' W 009°18'6 6.4
2016-Jun-26 17:27N 36°48' W 009°13'6 6.2
2016-Jun-26 16:28N 36°45' W 009°07'182 6.6
2016-Jun-25 13:08N 36°00' W 005°28'3 5.5
2016-Jun-25 12:33N 36°01' W 005°24'5 5.1
2016-Jun-25 11:33N 36°02' W 005°18'219 7.1
2016-Jun-24 04:33N 37°16' W 001°01'8 8.4
2016-Jun-24 03:33N 37°21' W 000°53'8 8.3
2016-Jun-24 02:34N 37°26' W 000°45'9 8.5
2016-Jun-24 01:33N 37°32' W 000°37'7 6.8
2016-Jun-24 00:33N 37°38' W 000°33'8 8.0
2016-Jun-23 23:33N 37°46' W 000°36'8 8.1
2016-Jun-23 22:33N 37°54' W 000°39'5 4.2
2016-Jun-23 21:23N 37°58' W 000°41'0 0.0
2016-Jun-23 20:29N 37°58' W 000°41'0 0.0
2016-Jun-23 19:29N 37°58' W 000°41'0 0.0
2016-Jun-23 18:29N 37°58' W 000°41'0 0.0
2016-Jun-23 17:23N 37°58' W 000°41'0 0.0
2016-Jun-23 16:29N 37°58' W 000°41'0 0.0
2016-Jun-23 15:29N 37°58' W 000°41'0 0.0
2016-Jun-23 14:29N 37°58' W 000°41'0 0.0
2016-Jun-23 13:29N 37°58' W 000°41'0 0.0
2016-Jun-23 12:29N 37°58' W 000°41'0 0.0
2016-Jun-23 11:29N 37°58' W 000°41'0 0.0
2016-Jun-23 10:29N 37°58' W 000°41'0 0.0
2016-Jun-23 09:29N 37°58' W 000°41'0 0.0
2016-Jun-23 08:29N 37°58' W 000°41'0 0.0
2016-Jun-23 07:29N 37°58' W 000°41'0 0.0
2016-Jun-23 05:29N 37°58' W 000°41'0 0.0
2016-Jun-23 04:29N 37°58' W 000°41'0 0.0
2016-Jun-23 03:29N 37°58' W 000°41'0 0.0
2016-Jun-23 02:29N 37°58' W 000°41'0 0.0
2016-Jun-23 01:29N 37°58' W 000°41'0 0.0
2016-Jun-23 00:29N 37°58' W 000°41'0 0.0
2016-Jun-22 23:23N 37°58' W 000°41'0 0.0
2016-Jun-22 22:29N 37°58' W 000°41'0 0.0
2016-Jun-22 21:29N 37°58' W 000°41'0 0.0
2016-Jun-22 20:17N 37°58' W 000°41'0 0.0
2016-Jun-22 19:29N 37°58' W 000°41'0 0.0
2016-Jun-22 18:17N 37°58' W 000°41'0 0.0
2016-Jun-22 17:33N 37°58' W 000°41'3 3.2
2016-Jun-22 16:34N 37°58' W 000°37'8 8.3
2016-Jun-22 15:33N 37°59' W 000°27'139 8.5
2016-Jun-21 23:10N 38°24' E 002°27'6 9.7
2016-Jun-21 22:33N 38°26' E 002°34'10 9.7
2016-Jun-21 21:33N 38°27' E 002°47'14 9.7
2016-Jun-21 20:05N 38°29' E 003°04'9 9.2
2016-Jun-21 19:06N 38°31' E 003°16'236 8.3
2016-Jun-20 14:33N 39°04' E 008°16'  
Track history (hours):
 
Tides and Currents Weather Stations Pressure Air Temp Water Temp Dewpoint Dewpoint Depression Visibility Wind Speed Wind Dir Waves Ship Positions

Nestor

Last reported at 2016-Jun-27 19:29 UTC. Time now 2016-Jun-28 09:51 UTC.
Position N 39°20' W 009°50'.

Length 88 m; draft 5.5 m.

Type: Cargo ship. MMSI: 305620000.

Date/timePositionNaut miles runAvg speedWind from/ knotsBaromVisibWave heightAir tempDewpointWater temp
2016-Jun-27 19:29N 39°20' W 009°50'5 5.6
2016-Jun-27 18:33N 39°15' W 009°51'6 5.8
2016-Jun-27 17:32N 39°09' W 009°50'6 5.4
2016-Jun-27 16:30N 39°03' W 009°50'5 5.5
2016-Jun-27 15:33N 38°58' W 009°51'5 5.3
2016-Jun-27 14:32N 38°53' W 009°51'5 5.3
2016-Jun-27 13:33N 38°48' W 009°51'6 5.6
2016-Jun-27 12:34N 38°42' W 009°50'6 5.9
2016-Jun-27 11:33N 38°36' W 009°49'6 5.9
2016-Jun-27 10:34N 38°31' W 009°47'6 5.8
2016-Jun-27 09:34N 38°25' W 009°46'6 6.0
2016-Jun-27 08:33N 38°19' W 009°44'7 6.4
2016-Jun-27 07:31N 38°13' W 009°42'13 6.5
2016-Jun-27 05:33N 38°00' W 009°38'7 6.5
2016-Jun-27 04:33N 37°54' W 009°36'6 6.4
2016-Jun-27 03:33N 37°48' W 009°34'6 6.4
2016-Jun-27 02:33N 37°41' W 009°32'6 6.2
2016-Jun-27 01:33N 37°35' W 009°31'6 5.7
2016-Jun-27 00:30N 37°29' W 009°29'12 6.0
2016-Jun-26 22:28N 37°18' W 009°25'6 6.2
2016-Jun-26 21:32N 37°12' W 009°24'6 6.2
2016-Jun-26 20:33N 37°06' W 009°22'8 6.2
2016-Jun-26 19:20N 36°59' W 009°20'6 6.4
2016-Jun-26 18:25N 36°53' W 009°18'6 6.4
2016-Jun-26 17:27N 36°48' W 009°13'6 6.2
2016-Jun-26 16:28N 36°45' W 009°07'182 6.6
2016-Jun-25 13:08N 36°00' W 005°28'3 5.5
2016-Jun-25 12:33N 36°01' W 005°24'5 5.1
2016-Jun-25 11:33N 36°02' W 005°18'219 7.1
2016-Jun-24 04:33N 37°16' W 001°01'8 8.4
2016-Jun-24 03:33N 37°21' W 000°53'8 8.3
2016-Jun-24 02:34N 37°26' W 000°45'9 8.5
2016-Jun-24 01:33N 37°32' W 000°37'7 6.8
2016-Jun-24 00:33N 37°38' W 000°33'8 8.0
2016-Jun-23 23:33N 37°46' W 000°36'8 8.1
2016-Jun-23 22:33N 37°54' W 000°39'5 4.2
2016-Jun-23 21:23N 37°58' W 000°41'0 0.0
2016-Jun-23 20:29N 37°58' W 000°41'0 0.0
2016-Jun-23 19:29N 37°58' W 000°41'0 0.0
2016-Jun-23 18:29N 37°58' W 000°41'0 0.0
2016-Jun-23 17:23N 37°58' W 000°41'0 0.0
2016-Jun-23 16:29N 37°58' W 000°41'0 0.0
2016-Jun-23 15:29N 37°58' W 000°41'0 0.0
2016-Jun-23 14:29N 37°58' W 000°41'0 0.0
2016-Jun-23 13:29N 37°58' W 000°41'0 0.0
2016-Jun-23 12:29N 37°58' W 000°41'0 0.0
2016-Jun-23 11:29N 37°58' W 000°41'0 0.0
2016-Jun-23 10:29N 37°58' W 000°41'0 0.0
2016-Jun-23 09:29N 37°58' W 000°41'0 0.0
2016-Jun-23 08:29N 37°58' W 000°41'0 0.0
2016-Jun-23 07:29N 37°58' W 000°41'0 0.0
2016-Jun-23 05:29N 37°58' W 000°41'0 0.0
2016-Jun-23 04:29N 37°58' W 000°41'0 0.0
2016-Jun-23 03:29N 37°58' W 000°41'0 0.0
2016-Jun-23 02:29N 37°58' W 000°41'0 0.0
2016-Jun-23 01:29N 37°58' W 000°41'0 0.0
2016-Jun-23 00:29N 37°58' W 000°41'0 0.0
2016-Jun-22 23:23N 37°58' W 000°41'0 0.0
2016-Jun-22 22:29N 37°58' W 000°41'0 0.0
2016-Jun-22 21:29N 37°58' W 000°41'0 0.0
2016-Jun-22 20:17N 37°58' W 000°41'0 0.0
2016-Jun-22 19:29N 37°58' W 000°41'0 0.0
2016-Jun-22 18:17N 37°58' W 000°41'0 0.0
2016-Jun-22 17:33N 37°58' W 000°41'3 3.2
2016-Jun-22 16:34N 37°58' W 000°37'8 8.3
2016-Jun-22 15:33N 37°59' W 000°27'139 8.5
2016-Jun-21 23:10N 38°24' E 002°27'6 9.7
2016-Jun-21 22:33N 38°26' E 002°34'10 9.7
2016-Jun-21 21:33N 38°27' E 002°47'14 9.7
2016-Jun-21 20:05N 38°29' E 003°04'9 9.2
2016-Jun-21 19:06N 38°31' E 003°16'236 8.3
2016-Jun-20 14:33N 39°04' E 008°16'  

Dump ship's entire track history